sensor_id;sensor_type;location;lat;lon;timestamp;P1;durP1;ratioP1;P2;durP2;ratioP2
74122;SDS011;62474;50.780;15.074;2022-12-18T16:10:11;37.53;;;16.40;;
74122;SDS011;62474;50.780;15.074;2022-12-18T16:12:37;39.40;;;12.90;;
74122;SDS011;62474;50.780;15.074;2022-12-18T16:15:04;34.97;;;13.93;;
74122;SDS011;62474;50.780;15.074;2022-12-18T16:17:31;50.35;;;17.55;;
74122;SDS011;62474;50.780;15.074;2022-12-18T16:19:57;30.35;;;11.85;;
74122;SDS011;62474;50.780;15.074;2022-12-18T16:22:24;35.97;;;14.20;;
74122;SDS011;62474;50.780;15.074;2022-12-18T16:24:51;37.77;;;13.57;;
74122;SDS011;62474;50.780;15.074;2022-12-18T16:27:18;101.95;;;40.83;;
74122;SDS011;62474;50.780;15.074;2022-12-18T16:29:44;60.15;;;25.55;;
74122;SDS011;62474;50.780;15.074;2022-12-18T16:32:14;36.35;;;15.23;;
74122;SDS011;62474;50.780;15.074;2022-12-18T16:34:41;34.60;;;14.55;;
74122;SDS011;62474;50.780;15.074;2022-12-18T16:37:09;38.03;;;11.93;;
74122;SDS011;62474;50.780;15.074;2022-12-18T16:39:35;18.65;;;8.82;;
74122;SDS011;62474;50.780;15.074;2022-12-18T16:42:03;48.17;;;13.60;;
74122;SDS011;62474;50.780;15.074;2022-12-18T16:44:29;39.17;;;13.35;;
74122;SDS011;62474;50.780;15.074;2022-12-18T16:46:55;38.05;;;13.15;;
74122;SDS011;62474;50.780;15.074;2022-12-18T16:49:26;38.43;;;13.73;;
74122;SDS011;62474;50.780;15.074;2022-12-18T16:51:53;41.88;;;14.45;;
74122;SDS011;62474;50.780;15.074;2022-12-18T16:54:19;28.35;;;12.55;;
74122;SDS011;62474;50.780;15.074;2022-12-18T16:56:45;24.73;;;10.88;;
74122;SDS011;62474;50.780;15.074;2022-12-18T16:59:14;35.67;;;13.00;;
74122;SDS011;62474;50.780;15.074;2022-12-18T17:01:40;22.97;;;10.53;;
74122;SDS011;62474;50.780;15.074;2022-12-18T17:04:07;43.97;;;18.73;;
74122;SDS011;62474;50.780;15.074;2022-12-18T17:06:34;34.88;;;12.85;;
74122;SDS011;62474;50.780;15.074;2022-12-18T17:09:01;42.53;;;14.75;;
74122;SDS011;62474;50.780;15.074;2022-12-18T17:11:29;47.05;;;19.35;;
74122;SDS011;62474;50.780;15.074;2022-12-18T17:13:55;34.50;;;12.17;;
74122;SDS011;62474;50.780;15.074;2022-12-18T17:16:21;42.53;;;15.02;;
74122;SDS011;62474;50.780;15.074;2022-12-18T17:18:48;25.85;;;10.55;;
74122;SDS011;62474;50.780;15.074;2022-12-18T17:21:14;24.98;;;9.73;;
74122;SDS011;62474;50.780;15.074;2022-12-18T17:23:41;32.22;;;12.07;;
74122;SDS011;62474;50.780;15.074;2022-12-18T17:26:07;31.97;;;12.03;;
74122;SDS011;62474;50.780;15.074;2022-12-18T17:28:34;30.60;;;12.20;;
74122;SDS011;62474;50.780;15.074;2022-12-18T17:31:01;33.83;;;13.27;;
74122;SDS011;62474;50.780;15.074;2022-12-18T17:33:27;35.55;;;13.43;;
74122;SDS011;62474;50.780;15.074;2022-12-18T17:35:53;21.70;;;9.15;;
74122;SDS011;62474;50.780;15.074;2022-12-18T17:38:23;21.87;;;7.73;;
74122;SDS011;62474;50.780;15.074;2022-12-18T17:40:49;35.03;;;13.52;;
74122;SDS011;62474;50.780;15.074;2022-12-18T17:43:15;38.22;;;14.45;;
74122;SDS011;62474;50.780;15.074;2022-12-18T17:45:41;34.88;;;13.13;;
74122;SDS011;62474;50.780;15.074;2022-12-18T17:48:08;30.53;;;11.30;;
74122;SDS011;62474;50.780;15.074;2022-12-18T17:50:34;35.55;;;12.45;;
74122;SDS011;62474;50.780;15.074;2022-12-18T17:53:01;30.98;;;11.73;;
74122;SDS011;62474;50.780;15.074;2022-12-18T17:55:27;42.58;;;13.55;;
74122;SDS011;62474;50.780;15.074;2022-12-18T17:57:53;38.42;;;14.45;;
74122;SDS011;62474;50.780;15.074;2022-12-18T18:00:20;31.10;;;12.60;;
74122;SDS011;62474;50.780;15.074;2022-12-18T18:02:46;42.03;;;16.05;;
74122;SDS011;62474;50.780;15.074;2022-12-18T18:05:12;42.45;;;16.70;;
74122;SDS011;62474;50.780;15.074;2022-12-18T18:07:38;29.20;;;8.77;;
74122;SDS011;62474;50.780;15.074;2022-12-18T18:10:05;37.72;;;13.45;;
74122;SDS011;62474;50.780;15.074;2022-12-18T18:12:31;21.03;;;9.67;;
74122;SDS011;62474;50.780;15.074;2022-12-18T18:15:16;30.52;;;12.20;;
74122;SDS011;62474;50.780;15.074;2022-12-18T18:17:42;39.47;;;15.93;;
74122;SDS011;62474;50.780;15.074;2022-12-18T18:20:08;45.92;;;16.42;;
74122;SDS011;62474;50.780;15.074;2022-12-18T18:22:35;36.85;;;11.98;;
74122;SDS011;62474;50.780;15.074;2022-12-18T18:25:01;23.23;;;7.60;;
74122;SDS011;62474;50.780;15.074;2022-12-18T18:27:27;61.97;;;23.63;;
74122;SDS011;62474;50.780;15.074;2022-12-18T18:29:53;38.50;;;14.48;;
74122;SDS011;62474;50.780;15.074;2022-12-18T18:32:19;35.53;;;14.45;;
74122;SDS011;62474;50.780;15.074;2022-12-18T18:34:45;24.83;;;9.23;;
74122;SDS011;62474;50.780;15.074;2022-12-18T18:37:11;46.57;;;16.20;;
74122;SDS011;62474;50.780;15.074;2022-12-18T18:39:37;21.35;;;9.75;;
74122;SDS011;62474;50.780;15.074;2022-12-18T18:42:03;28.30;;;10.48;;
74122;SDS011;62474;50.780;15.074;2022-12-18T18:44:37;24.02;;;9.77;;
74122;SDS011;62474;50.780;15.074;2022-12-18T18:47:09;23.07;;;8.60;;
74122;SDS011;62474;50.780;15.074;2022-12-18T18:49:35;43.72;;;16.13;;
74122;SDS011;62474;50.780;15.074;2022-12-18T18:52:01;32.13;;;11.68;;
74122;SDS011;62474;50.780;15.074;2022-12-18T18:54:27;19.30;;;9.07;;
74122;SDS011;62474;50.780;15.074;2022-12-18T18:56:55;48.67;;;11.13;;
74122;SDS011;62474;50.780;15.074;2022-12-18T18:59:21;14.10;;;5.70;;
74122;SDS011;62474;50.780;15.074;2022-12-18T19:01:47;34.25;;;11.77;;
74122;SDS011;62474;50.780;15.074;2022-12-18T19:04:14;43.53;;;14.38;;
74122;SDS011;62474;50.780;15.074;2022-12-18T19:06:40;35.75;;;13.10;;
74122;SDS011;62474;50.780;15.074;2022-12-18T19:09:07;66.53;;;23.85;;
74122;SDS011;62474;50.780;15.074;2022-12-18T19:11:33;42.10;;;15.20;;
74122;SDS011;62474;50.780;15.074;2022-12-18T19:14:17;41.90;;;16.15;;
74122;SDS011;62474;50.780;15.074;2022-12-18T19:16:44;48.30;;;17.08;;
74122;SDS011;62474;50.780;15.074;2022-12-18T19:19:10;36.22;;;12.35;;
74122;SDS011;62474;50.780;15.074;2022-12-18T19:21:37;31.60;;;12.75;;
74122;SDS011;62474;50.780;15.074;2022-12-18T19:24:03;32.70;;;11.20;;
74122;SDS011;62474;50.780;15.074;2022-12-18T19:26:29;29.67;;;10.68;;
74122;SDS011;62474;50.780;15.074;2022-12-18T19:28:59;34.58;;;12.90;;
74122;SDS011;62474;50.780;15.074;2022-12-18T19:31:26;19.70;;;7.60;;
74122;SDS011;62474;50.780;15.074;2022-12-18T19:33:52;26.85;;;10.07;;
74122;SDS011;62474;50.780;15.074;2022-12-18T19:36:19;23.93;;;9.47;;
74122;SDS011;62474;50.780;15.074;2022-12-18T19:38:46;22.88;;;9.23;;
74122;SDS011;62474;50.780;15.074;2022-12-18T19:41:12;24.40;;;9.20;;
74122;SDS011;62474;50.780;15.074;2022-12-18T19:43:38;17.17;;;7.35;;
74122;SDS011;62474;50.780;15.074;2022-12-18T19:46:05;17.70;;;9.68;;
74122;SDS011;62474;50.780;15.074;2022-12-18T19:48:32;20.67;;;6.90;;
74122;SDS011;62474;50.780;15.074;2022-12-18T19:51:02;17.13;;;6.65;;
74122;SDS011;62474;50.780;15.074;2022-12-18T19:53:28;15.13;;;5.43;;
74122;SDS011;62474;50.780;15.074;2022-12-18T19:55:54;9.50;;;3.58;;
74122;SDS011;62474;50.780;15.074;2022-12-18T19:58:20;10.40;;;3.72;;
74122;SDS011;62474;50.780;15.074;2022-12-18T20:00:46;11.57;;;3.63;;
74122;SDS011;62474;50.780;15.074;2022-12-18T20:03:12;7.53;;;2.65;;
74122;SDS011;62474;50.780;15.074;2022-12-18T20:05:38;5.88;;;2.05;;
74122;SDS011;62474;50.780;15.074;2022-12-18T20:08:04;7.93;;;2.60;;
74122;SDS011;62474;50.780;15.074;2022-12-18T20:10:30;5.88;;;2.35;;
74122;SDS011;62474;50.780;15.074;2022-12-18T20:12:56;9.93;;;2.90;;
74122;SDS011;62474;50.780;15.074;2022-12-18T20:15:22;5.38;;;2.28;;
74122;SDS011;62474;50.780;15.074;2022-12-18T20:17:48;6.82;;;2.85;;
74122;SDS011;62474;50.780;15.074;2022-12-18T20:20:14;5.03;;;1.90;;
74122;SDS011;62474;50.780;15.074;2022-12-18T20:22:41;5.85;;;1.95;;
74122;SDS011;62474;50.780;15.074;2022-12-18T20:25:07;7.03;;;1.73;;
74122;SDS011;62474;50.780;15.074;2022-12-18T20:27:33;6.90;;;1.83;;
74122;SDS011;62474;50.780;15.074;2022-12-18T20:29:59;4.70;;;1.35;;
74122;SDS011;62474;50.780;15.074;2022-12-18T20:32:25;5.35;;;1.55;;
74122;SDS011;62474;50.780;15.074;2022-12-18T20:34:51;4.07;;;1.53;;
74122;SDS011;62474;50.780;15.074;2022-12-18T20:37:17;4.07;;;1.67;;
74122;SDS011;62474;50.780;15.074;2022-12-18T20:39:43;7.18;;;2.53;;
74122;SDS011;62474;50.780;15.074;2022-12-18T20:42:09;9.18;;;3.15;;
74122;SDS011;62474;50.780;15.074;2022-12-18T20:44:35;9.82;;;3.97;;
74122;SDS011;62474;50.780;15.074;2022-12-18T20:47:01;16.30;;;7.00;;
74122;SDS011;62474;50.780;15.074;2022-12-18T20:49:28;11.40;;;4.57;;
74122;SDS011;62474;50.780;15.074;2022-12-18T20:51:55;10.80;;;3.25;;
74122;SDS011;62474;50.780;15.074;2022-12-18T20:54:22;4.10;;;1.65;;
74122;SDS011;62474;50.780;15.074;2022-12-18T20:56:48;8.23;;;3.50;;
74122;SDS011;62474;50.780;15.074;2022-12-18T20:59:14;5.77;;;1.93;;
74122;SDS011;62474;50.780;15.074;2022-12-18T21:01:40;7.95;;;2.45;;
74122;SDS011;62474;50.780;15.074;2022-12-18T21:04:07;9.80;;;3.42;;
